Time;durP1;ratioP1;P1;durP2;ratioP2;P2;SDS_P1;SDS_P2;PMS_P1;PMS_P2;Temp;Humidity;BMP_temperature;BMP_pressure;BME280_temperature;BME280_humidity;BME280_pressure;Samples;Min_cycle;Max_cycle;Signal;HPM_P1;HPM_P2
2023/10/16 00:00:29;;;;;;;1.43;1.00;;;6.40;99.90;;;;;;5052451;28;20202;-53
2023/10/16 00:03:02;;;;;;;3.27;1.33;;;6.50;99.90;;;;;;5050917;28;20832;-52
2023/10/16 00:05:31;;;;;;;3.80;1.10;;;6.50;99.90;;;;;;5049129;28;20388;-52
2023/10/16 00:07:57;;;;;;;3.40;1.10;;;6.60;99.90;;;;;;5033793;28;20205;-52
2023/10/16 00:10:24;;;;;;;2.73;1.50;;;6.60;99.90;;;;;;5049522;28;20273;-53
2023/10/16 00:12:50;;;;;;;5.80;1.40;;;6.60;99.90;;;;;;5036559;28;20221;-53
2023/10/16 00:15:16;;;;;;;3.47;1.20;;;6.50;99.90;;;;;;5037190;28;20198;-53
2023/10/16 00:17:43;;;;;;;2.17;1.30;;;6.50;99.90;;;;;;5044144;28;20198;-53
2023/10/16 00:20:14;;;;;;;3.27;1.20;;;6.50;99.90;;;;;;5034681;28;20861;-53
2023/10/16 00:22:43;;;;;;;3.37;0.97;;;6.50;99.90;;;;;;5048271;28;20206;-53
2023/10/16 00:25:10;;;;;;;3.27;1.00;;;6.50;99.90;;;;;;5048619;28;20209;-53
2023/10/16 00:27:37;;;;;;;5.13;1.23;;;6.40;99.90;;;;;;5048660;28;21038;-53
2023/10/16 00:30:08;;;;;;;2.77;1.40;;;6.50;99.90;;;;;;5050190;28;20277;-55
2023/10/16 00:32:36;;;;;;;5.73;1.10;;;6.60;99.90;;;;;;5047932;28;20238;-57
2023/10/16 00:35:03;;;;;;;5.57;1.00;;;6.80;99.90;;;;;;5049320;28;20242;-52
2023/10/16 00:37:31;;;;;;;2.13;1.00;;;6.60;99.90;;;;;;5054136;28;20205;-52
2023/10/16 00:39:57;;;;;;;1.40;0.80;;;6.60;99.90;;;;;;5027819;28;20652;-52
2023/10/16 00:42:23;;;;;;;3.47;1.40;;;6.70;99.90;;;;;;5048973;28;20281;-52
2023/10/16 00:44:55;;;;;;;2.23;0.97;;;6.40;99.90;;;;;;5033025;28;20199;-52
2023/10/16 00:47:21;;;;;;;2.53;1.17;;;6.30;99.90;;;;;;5041891;28;20194;-52
2023/10/16 00:49:49;;;;;;;2.93;1.10;;;6.30;99.90;;;;;;5048887;28;20213;-53
2023/10/16 00:52:15;;;;;;;5.43;1.63;;;6.20;99.90;;;;;;5053709;28;20846;-53
2023/10/16 00:54:41;;;;;;;6.43;1.20;;;6.10;99.90;;;;;;5053521;28;20608;-52
2023/10/16 00:57:08;;;;;;;1.77;0.97;;;6.20;99.90;;;;;;5052489;28;20202;-52
2023/10/16 00:59:35;;;;;;;2.47;1.20;;;6.20;99.90;;;;;;5046675;28;20203;-52
2023/10/16 01:02:13;;;;;;;1.90;0.60;;;6.30;99.90;;;;;;5049995;28;20202;-52
2023/10/16 01:04:40;;;;;;;3.90;1.17;;;6.20;99.90;;;;;;5034248;28;20226;-52
2023/10/16 01:07:06;;;;;;;6.30;1.30;;;6.20;99.90;;;;;;5041698;28;20789;-53
2023/10/16 01:09:35;;;;;;;1.30;0.93;;;6.20;99.90;;;;;;5052137;28;20285;-52
2023/10/16 01:12:06;;;;;;;4.97;1.03;;;6.20;99.90;;;;;;5049260;28;20201;-52
2023/10/16 01:14:36;;;;;;;3.90;1.10;;;6.20;99.90;;;;;;5045912;28;21300;-52
2023/10/16 01:17:03;;;;;;;1.90;0.80;;;6.20;99.90;;;;;;5047311;28;20233;-52
2023/10/16 01:19:29;;;;;;;6.80;1.50;;;6.40;99.90;;;;;;5052494;28;20581;-52
2023/10/16 01:21:55;;;;;;;3.80;1.10;;;6.40;99.90;;;;;;5054289;28;20194;-52
2023/10/16 01:24:21;;;;;;;2.13;1.17;;;6.50;99.90;;;;;;5054439;28;20209;-52
2023/10/16 01:26:46;;;;;;;2.77;0.90;;;6.30;99.90;;;;;;5055466;28;20614;-52
2023/10/16 01:29:15;;;;;;;6.30;1.00;;;6.40;99.90;;;;;;5051953;28;20668;-52
2023/10/16 01:31:43;;;;;;;5.27;1.40;;;6.40;99.90;;;;;;5053524;28;20220;-54
2023/10/16 01:34:12;;;;;;;1.97;1.13;;;6.60;99.90;;;;;;5053892;28;20272;-53
2023/10/16 01:36:45;;;;;;;2.13;1.00;;;6.50;99.90;;;;;;5049474;28;20315;-53
2023/10/16 01:39:47;;;;;;;3.43;1.20;;;6.60;99.90;;;;;;5053976;28;20254;-54
2023/10/16 01:41:56;;;;;;;4.70;1.10;;;6.40;99.90;;;;;;5046491;28;20210;-55
2023/10/16 01:44:21;;;;;;;1.03;0.80;;;6.50;99.90;;;;;;5049508;28;20258;-53
2023/10/16 01:46:48;;;;;;;2.83;0.70;;;6.40;99.90;;;;;;5036325;28;20203;-51
2023/10/16 01:49:13;;;;;;;5.80;1.17;;;6.20;99.90;;;;;;5046926;28;20202;-52
2023/10/16 01:51:43;;;;;;;4.20;1.10;;;6.10;99.90;;;;;;5049622;28;20206;-52
2023/10/16 01:54:14;;;;;;;2.20;1.43;;;6.00;99.90;;;;;;5049013;28;20221;-53
2023/10/16 01:56:41;;;;;;;2.07;1.27;;;6.00;99.90;;;;;;5048790;28;20890;-52
2023/10/16 01:59:07;;;;;;;2.40;1.30;;;6.20;99.90;;;;;;5050856;28;20683;-52
2023/10/16 02:01:32;;;;;;;4.57;1.13;;;6.00;99.90;;;;;;5035893;28;20195;-52
2023/10/16 02:04:01;;;;;;;4.87;1.17;;;6.10;99.90;;;;;;5046043;28;20305;-56
2023/10/16 02:06:26;;;;;;;3.60;1.40;;;6.20;99.90;;;;;;5051225;28;20293;-53
2023/10/16 02:08:51;;;;;;;3.97;1.23;;;6.10;99.90;;;;;;5036990;28;20204;-53
2023/10/16 02:11:17;;;;;;;5.03;1.43;;;6.20;99.90;;;;;;5053530;28;20283;-53
2023/10/16 02:13:43;;;;;;;4.10;1.17;;;6.20;99.90;;;;;;5050765;28;20222;-53
2023/10/16 02:16:12;;;;;;;4.60;1.40;;;6.30;99.90;;;;;;5053048;28;20295;-53
2023/10/16 02:18:40;;;;;;;5.03;1.47;;;6.20;99.90;;;;;;5053385;28;20608;-53
2023/10/16 02:21:06;;;;;;;0.83;0.80;;;6.10;99.90;;;;;;5048721;28;20225;-52
2023/10/16 02:23:32;;;;;;;3.70;1.10;;;6.20;99.90;;;;;;5051866;28;20229;-53
2023/10/16 02:26:01;;;;;;;1.57;0.90;;;6.00;99.90;;;;;;5052577;28;20310;-52
2023/10/16 02:28:27;;;;;;;5.57;1.13;;;5.90;99.90;;;;;;5052637;28;20202;-53
2023/10/16 02:30:52;;;;;;;4.40;1.43;;;5.80;99.90;;;;;;5048421;28;20256;-53
2023/10/16 02:35:47;;;;;;;4.47;1.53;;;5.80;99.90;;;;;;5046817;28;20224;-53
2023/10/16 02:38:14;;;;;;;6.43;1.70;;;5.90;99.90;;;;;;5053293;28;20657;-51
2023/10/16 02:40:43;;;;;;;3.70;1.10;;;6.00;99.90;;;;;;5052200;28;20199;-52
2023/10/16 02:43:18;;;;;;;4.57;1.27;;;6.20;99.90;;;;;;5052256;28;20626;-52
2023/10/16 02:45:47;;;;;;;2.73;0.77;;;6.20;99.90;;;;;;5049532;28;20189;-53
2023/10/16 02:48:18;;;;;;;3.57;1.53;;;5.90;99.90;;;;;;5050487;28;20194;-60
2023/10/16 02:50:49;;;;;;;2.87;1.10;;;5.90;99.90;;;;;;5054254;28;20415;-56
2023/10/16 02:53:24;;;;;;;3.23;1.03;;;5.70;99.90;;;;;;5054289;28;20218;-52
2023/10/16 02:55:54;;;;;;;2.03;0.83;;;5.70;99.90;;;;;;5039564;28;20578;-52
2023/10/16 02:58:22;;;;;;;1.87;1.60;;;5.70;99.90;;;;;;5050715;28;20222;-52
2023/10/16 03:00:55;;;;;;;5.27;1.30;;;5.90;99.90;;;;;;5048503;28;20198;-52
2023/10/16 03:03:21;;;;;;;3.13;1.07;;;5.90;99.90;;;;;;5031441;28;20205;-53
2023/10/16 03:05:49;;;;;;;4.73;1.40;;;6.10;99.90;;;;;;5031359;28;20202;-53
2023/10/16 03:08:18;;;;;;;2.63;0.97;;;6.20;99.90;;;;;;5051701;28;20218;-53
2023/10/16 03:10:45;;;;;;;7.87;1.27;;;6.00;99.90;;;;;;5051918;28;20506;-53
2023/10/16 03:13:13;;;;;;;2.87;0.90;;;5.90;99.90;;;;;;5051493;28;20214;-53
2023/10/16 03:15:45;;;;;;;4.70;1.23;;;5.90;99.90;;;;;;5038543;28;20574;-55
2023/10/16 03:18:22;;;;;;;3.93;1.70;;;6.00;99.90;;;;;;5049614;28;20222;-56
2023/10/16 03:20:48;;;;;;;2.30;0.90;;;6.20;99.90;;;;;;5046810;28;20848;-54
2023/10/16 03:23:14;;;;;;;8.07;1.67;;;5.80;99.90;;;;;;5048048;28;20200;-53
2023/10/16 03:28:11;;;;;;;1.30;1.13;;;5.80;99.90;;;;;;5051443;28;20209;-53
2023/10/16 03:30:37;;;;;;;2.53;1.23;;;5.90;99.90;;;;;;5045754;28;20566;-53
2023/10/16 03:33:07;;;;;;;11.10;1.60;;;5.70;99.90;;;;;;5053954;28;20214;-52
2023/10/16 03:35:34;;;;;;;2.93;1.10;;;5.70;99.90;;;;;;5033060;28;20201;-53
2023/10/16 03:38:08;;;;;;;3.60;1.10;;;5.70;99.90;;;;;;5049682;28;20565;-54
2023/10/16 03:40:34;;;;;;;6.67;1.30;;;5.60;99.90;;;;;;5033492;28;20198;-53
2023/10/16 03:42:59;;;;;;;4.07;1.50;;;5.80;99.90;;;;;;5053046;28;20274;-52
2023/10/16 03:45:26;;;;;;;3.57;1.40;;;5.70;99.90;;;;;;5040712;28;20194;-52
2023/10/16 03:47:53;;;;;;;5.17;1.70;;;5.80;99.90;;;;;;5050562;28;20206;-52
2023/10/16 03:50:34;;;;;;;1.90;1.43;;;5.70;99.90;;;;;;5046598;28;20255;-51
2023/10/16 03:53:07;;;;;;;4.30;1.63;;;5.90;99.90;;;;;;5032894;28;20218;-52
2023/10/16 03:55:40;;;;;;;3.57;1.60;;;5.80;99.90;;;;;;5026440;28;20704;-52
2023/10/16 03:58:06;;;;;;;4.77;1.40;;;5.70;99.90;;;;;;5041683;28;20206;-52
2023/10/16 04:00:50;;;;;;;1.43;0.80;;;5.80;99.90;;;;;;5053447;28;20198;-53
2023/10/16 04:03:17;;;;;;;2.83;1.00;;;5.90;99.90;;;;;;5049409;28;20884;-53
2023/10/16 04:05:45;;;;;;;5.10;1.30;;;6.10;99.90;;;;;;5051020;28;20592;-53
2023/10/16 04:08:14;;;;;;;4.47;1.37;;;6.10;99.90;;;;;;5051410;28;20204;-53
2023/10/16 04:10:46;;;;;;;2.77;1.10;;;6.20;99.90;;;;;;5053918;28;20202;-53
2023/10/16 04:13:14;;;;;;;5.47;1.27;;;6.30;99.90;;;;;;5051613;28;20216;-53
2023/10/16 04:21:37;;;;;;;6.93;1.00;;;6.10;99.90;;;;;;5055563;28;20229;-53
2023/10/16 04:31:44;;;;;;;4.40;1.10;;;5.80;99.90;;;;;;5050398;28;20248;-52
2023/10/16 04:34:24;;;;;;;3.07;1.23;;;5.70;99.90;;;;;;5052301;28;20209;-53
2023/10/16 04:36:53;;;;;;;3.23;1.13;;;5.70;99.90;;;;;;5054491;28;20221;-51
2023/10/16 04:47:47;;;;;;;3.03;1.00;;;5.70;99.90;;;;;;5025276;28;20363;-52
2023/10/16 04:50:15;;;;;;;2.83;1.30;;;5.50;99.90;;;;;;5016212;28;20219;-52
2023/10/16 05:06:15;;;;;;;3.53;1.73;;;5.50;99.90;;;;;;5033624;28;20658;-56
2023/10/16 05:11:36;;;;;;;5.90;2.03;;;5.50;99.90;;;;;;5023444;28;20225;-54
2023/10/16 06:16:21;;;;;;;5.83;2.07;;;5.80;99.90;;;;;;5031094;28;20272;-53
2023/10/16 06:18:48;;;;;;;8.70;2.13;;;5.80;99.90;;;;;;5031402;28;20313;-54
2023/10/16 06:21:15;;;;;;;3.97;1.67;;;5.50;99.90;;;;;;5028314;28;20207;-53
2023/10/16 06:23:48;;;;;;;7.53;2.03;;;5.50;99.90;;;;;;5030060;28;20202;-54
2023/10/16 06:26:14;;;;;;;4.00;1.93;;;5.50;99.90;;;;;;4993508;28;20206;-53
2023/10/16 06:28:47;;;;;;;2.57;1.73;;;5.50;99.90;;;;;;5032370;28;20764;-54
2023/10/16 06:31:22;;;;;;;3.80;1.50;;;5.60;99.90;;;;;;5032430;28;20745;-53
2023/10/16 06:33:58;;;;;;;2.87;1.53;;;5.60;99.90;;;;;;5025533;28;24027;-54
2023/10/16 06:36:24;;;;;;;5.40;2.20;;;5.50;99.90;;;;;;5033298;28;20236;-53
2023/10/16 06:38:51;;;;;;;5.33;1.60;;;5.50;99.90;;;;;;5028595;28;20677;-53
2023/10/16 06:41:20;;;;;;;4.73;1.30;;;5.50;99.90;;;;;;5021091;28;20261;-53
2023/10/16 06:43:47;;;;;;;2.57;1.63;;;5.60;99.90;;;;;;5001841;28;20202;-54
2023/10/16 06:46:24;;;;;;;5.97;1.60;;;5.70;99.90;;;;;;5023531;28;20214;-53
2023/10/16 06:48:51;;;;;;;13.00;2.37;;;5.70;99.90;;;;;;5028681;28;20198;-53
2023/10/16 06:51:17;;;;;;;4.97;2.47;;;5.70;99.90;;;;;;5032573;28;20405;-54
2023/10/16 06:53:46;;;;;;;10.07;1.90;;;5.70;99.90;;;;;;5007930;28;20269;-53
2023/10/16 06:56:14;;;;;;;6.80;1.90;;;5.70;99.90;;;;;;5025567;28;20228;-53
2023/10/16 06:58:40;;;;;;;4.73;2.20;;;5.60;99.90;;;;;;5027558;28;20712;-53
2023/10/16 07:01:06;;;;;;;3.07;1.47;;;5.80;99.90;;;;;;5026202;28;20623;-53
2023/10/16 07:03:33;;;;;;;4.60;1.60;;;5.80;99.90;;;;;;5031802;28;20229;-54
2023/10/16 07:05:59;;;;;;;3.03;1.60;;;5.70;99.90;;;;;;5031636;28;20218;-53
2023/10/16 07:08:25;;;;;;;3.00;2.00;;;5.80;99.90;;;;;;5013230;28;20361;-54
2023/10/16 07:11:03;;;;;;;6.83;2.30;;;5.80;99.90;;;;;;5031718;28;20198;-53
2023/10/16 07:13:31;;;;;;;2.70;1.90;;;6.00;99.90;;;;;;5027012;28;20214;-54
2023/10/16 07:16:04;;;;;;;2.60;1.60;;;6.00;99.90;;;;;;5033197;28;20211;-53
2023/10/16 07:18:35;;;;;;;6.43;1.57;;;6.00;99.90;;;;;;5037790;28;20277;-58
2023/10/16 07:23:34;;;;;;;2.53;1.87;;;6.20;99.90;;;;;;5039931;28;20665;-56
2023/10/16 07:26:00;;;;;;;5.70;1.80;;;6.40;99.90;;;;;;5034124;28;20289;-54
2023/10/16 07:28:29;;;;;;;3.03;1.80;;;6.30;99.90;;;;;;5027004;28;20699;-60
2023/10/16 07:31:05;;;;;;;4.53;1.60;;;6.40;99.90;;;;;;4997791;28;20305;-52
2023/10/16 07:33:32;;;;;;;4.53;1.93;;;6.60;99.90;;;;;;5019583;28;20217;-52
2023/10/16 07:36:01;;;;;;;6.10;1.60;;;6.60;99.90;;;;;;5028082;28;20309;-52
2023/10/16 07:38:28;;;;;;;5.57;1.90;;;6.60;99.90;;;;;;5019183;28;20289;-62
2023/10/16 07:40:57;;;;;;;2.37;1.60;;;6.60;99.90;;;;;;5018297;28;20206;-57
2023/10/16 07:43:28;;;;;;;7.63;2.27;;;6.60;99.90;;;;;;5018332;28;20198;-56
2023/10/16 07:48:50;;;;;;;4.87;2.40;;;6.70;99.90;;;;;;5018789;28;20217;-58
2023/10/16 07:51:17;;;;;;;3.07;2.03;;;6.80;99.90;;;;;;4996469;28;20210;-54
2023/10/16 07:53:43;;;;;;;4.83;1.63;;;6.80;99.90;;;;;;5017251;28;20292;-54
2023/10/16 07:56:30;;;;;;;7.00;2.97;;;7.00;99.90;;;;;;4998840;28;20212;-55
2023/10/16 07:58:56;;;;;;;8.07;3.10;;;6.90;99.90;;;;;;5016765;28;20265;-56
2023/10/16 08:01:32;;;;;;;6.60;2.00;;;7.00;99.90;;;;;;5020255;28;20192;-62
2023/10/16 08:03:58;;;;;;;4.10;2.00;;;7.20;99.90;;;;;;5016899;28;20202;-58
2023/10/16 08:06:25;;;;;;;5.30;2.13;;;7.30;99.90;;;;;;5015128;28;20565;-57
2023/10/16 08:09:29;;;;;;;4.30;1.90;;;7.20;99.90;;;;;;4993248;28;20218;-62
2023/10/16 08:11:43;;;;;;;4.00;2.37;;;7.30;99.90;;;;;;5015702;28;20203;-55
2023/10/16 08:14:10;;;;;;;7.17;2.37;;;7.50;99.90;;;;;;5024314;28;20233;-52
2023/10/16 08:16:38;;;;;;;8.73;1.93;;;7.60;99.90;;;;;;5021739;28;20195;-53
2023/10/16 08:19:14;;;;;;;4.37;1.50;;;7.70;99.90;;;;;;5021206;28;20195;-54
2023/10/16 08:21:42;;;;;;;5.73;1.70;;;8.00;99.90;;;;;;5003068;28;20195;-55
2023/10/16 08:24:13;;;;;;;2.97;2.00;;;7.90;99.90;;;;;;5022614;28;20207;-55
2023/10/16 08:26:42;;;;;;;5.07;2.50;;;8.00;99.90;;;;;;5025668;28;20195;-54
2023/10/16 08:29:11;;;;;;;5.87;1.97;;;8.20;99.90;;;;;;5026952;28;20741;-54
2023/10/16 08:31:41;;;;;;;5.00;2.20;;;8.30;99.90;;;;;;5023747;28;20903;-63
2023/10/16 08:34:08;;;;;;;3.17;1.80;;;8.40;99.90;;;;;;5028242;28;20218;-56
2023/10/16 08:36:33;;;;;;;3.97;2.13;;;8.50;99.90;;;;;;5023668;28;20233;-54
2023/10/16 08:39:08;;;;;;;3.20;1.97;;;8.40;99.90;;;;;;5022521;28;20207;-55
2023/10/16 08:41:52;;;;;;;10.20;2.77;;;8.40;99.90;;;;;;5026573;28;20202;-61
2023/10/16 08:44:19;;;;;;;6.63;1.97;;;8.60;99.90;;;;;;5022691;28;20817;-60
2023/10/16 08:47:35;;;;;;;3.27;1.73;;;8.90;99.90;;;;;;5006162;28;20384;-56
2023/10/16 08:49:37;;;;;;;7.53;1.87;;;8.90;99.90;;;;;;5009629;28;20752;-61
2023/10/16 08:52:08;;;;;;;1.37;1.20;;;8.70;99.90;;;;;;5016884;28;20207;-61
2023/10/16 08:57:16;;;;;;;6.90;2.00;;;8.90;99.90;;;;;;5016515;28;20629;-54
2023/10/16 08:59:43;;;;;;;5.20;1.63;;;9.10;99.90;;;;;;5020170;28;20223;-55
2023/10/16 09:02:12;;;;;;;3.77;2.57;;;9.00;99.90;;;;;;5017678;28;20203;-55
2023/10/16 09:04:41;;;;;;;3.03;1.37;;;9.10;99.90;;;;;;5015860;28;20218;-54
2023/10/16 09:07:07;;;;;;;3.60;1.60;;;9.00;99.90;;;;;;5019307;28;20203;-55
2023/10/16 09:09:33;;;;;;;4.17;1.83;;;9.00;99.90;;;;;;5017667;28;20230;-55
2023/10/16 09:12:10;;;;;;;3.97;1.77;;;9.20;99.90;;;;;;4993953;28;20244;-60
2023/10/16 09:14:40;;;;;;;4.87;1.77;;;9.30;99.90;;;;;;5019074;28;20208;-54
2023/10/16 09:17:07;;;;;;;3.10;1.73;;;9.40;99.90;;;;;;5022110;28;20215;-54
2023/10/16 09:19:34;;;;;;;7.23;2.00;;;9.40;99.90;;;;;;5031539;28;20207;-54
2023/10/16 09:22:09;;;;;;;4.93;1.60;;;9.50;99.90;;;;;;5007453;28;20221;-53
2023/10/16 09:24:35;;;;;;;3.97;1.20;;;9.50;99.90;;;;;;5030107;28;20212;-54
2023/10/16 09:27:11;;;;;;;2.23;1.40;;;9.50;99.90;;;;;;5020792;28;20258;-54
2023/10/16 09:29:36;;;;;;;2.93;1.83;;;9.50;99.90;;;;;;4998652;28;20224;-54
2023/10/16 09:32:06;;;;;;;2.97;1.63;;;9.50;99.90;;;;;;5020068;28;20341;-54
2023/10/16 09:34:34;;;;;;;5.93;1.53;;;9.50;99.90;;;;;;5000468;28;20213;-56
2023/10/16 09:37:15;;;;;;;3.13;1.37;;;9.60;99.90;;;;;;5015610;28;20233;-58
2023/10/16 09:39:40;;;;;;;2.13;1.27;;;9.70;99.90;;;;;;5015756;28;20307;-63
2023/10/16 09:42:12;;;;;;;5.20;1.67;;;9.80;99.90;;;;;;5013431;28;20211;-54
2023/10/16 09:44:40;;;;;;;3.73;1.73;;;9.90;99.90;;;;;;5028566;28;20672;-55
2023/10/16 09:47:30;;;;;;;2.43;1.60;;;10.00;99.90;;;;;;5029409;28;20521;-55
2023/10/16 09:50:00;;;;;;;5.23;1.50;;;10.20;99.90;;;;;;5033040;28;20663;-56
2023/10/16 09:52:30;;;;;;;2.70;1.37;;;10.40;99.90;;;;;;5032142;28;20215;-54
2023/10/16 09:54:58;;;;;;;4.87;1.50;;;10.30;99.90;;;;;;5027906;28;20239;-55
2023/10/16 09:57:30;;;;;;;4.77;1.60;;;10.40;99.90;;;;;;5029281;28;20214;-54
2023/10/16 10:02:42;;;;;;;5.77;1.43;;;9.90;99.90;;;;;;5017693;28;20203;-54
2023/10/16 10:05:12;;;;;;;5.20;2.10;;;9.80;99.90;;;;;;5028948;28;21013;-54
2023/10/16 10:07:47;;;;;;;7.03;1.60;;;9.80;99.90;;;;;;5025444;28;20199;-61
2023/10/16 10:13:09;;;;;;;3.73;1.07;;;9.70;99.90;;;;;;5021451;28;20308;-54
2023/10/16 10:15:38;;;;;;;5.13;1.23;;;9.80;99.90;;;;;;5000158;28;20240;-57
2023/10/16 10:20:58;;;;;;;3.57;1.77;;;9.90;99.90;;;;;;5025179;28;20204;-55
2023/10/16 10:23:25;;;;;;;3.73;1.17;;;10.20;99.90;;;;;;5030269;28;20809;-54
2023/10/16 10:25:54;;;;;;;4.70;0.80;;;10.50;99.90;;;;;;5024992;28;20369;-63
2023/10/16 10:28:29;;;;;;;3.33;1.23;;;10.70;99.90;;;;;;4995653;28;20201;-58
2023/10/16 10:30:56;;;;;;;4.00;1.00;;;10.90;99.90;;;;;;5025526;28;20534;-56
2023/10/16 10:33:46;;;;;;;4.83;1.37;;;11.30;99.90;;;;;;5015181;28;20220;-56
2023/10/16 10:36:39;;;;;;;5.70;1.40;;;11.30;99.90;;;;;;5023524;28;20665;-56
2023/10/16 10:39:38;;;;;;;4.50;1.20;;;11.00;99.90;;;;;;5008946;28;21094;-56
2023/10/16 10:42:04;;;;;;;3.33;0.90;;;10.90;99.90;;;;;;5025215;28;20300;-56
2023/10/16 10:44:44;;;;;;;3.53;1.50;;;10.60;99.90;;;;;;5016885;28;20203;-56
2023/10/16 10:47:30;;;;;;;3.23;1.13;;;10.50;99.90;;;;;;5024547;28;20212;-55
2023/10/16 10:50:05;;;;;;;5.60;1.53;;;10.50;99.90;;;;;;5006416;28;20204;-55
2023/10/16 10:52:37;;;;;;;1.40;1.00;;;10.50;99.90;;;;;;5028341;28;20203;-55
2023/10/16 10:55:14;;;;;;;4.20;1.00;;;10.60;99.90;;;;;;5025503;28;20596;-55
2023/10/16 10:57:40;;;;;;;3.70;2.00;;;10.60;99.90;;;;;;5000753;28;20236;-56
2023/10/16 11:05:00;;;;;;;3.20;1.13;;;10.90;99.90;;;;;;5008153;28;20208;-55
2023/10/16 11:07:39;;;;;;;2.20;1.93;;;10.90;99.90;;;;;;5013330;28;20214;-53
2023/10/16 11:10:06;;;;;;;2.20;0.93;;;10.80;99.90;;;;;;5013918;28;20197;-56
2023/10/16 11:12:32;;;;;;;5.07;1.60;;;10.90;99.90;;;;;;5014947;28;20233;-66
2023/10/16 11:14:58;;;;;;;4.57;1.83;;;10.70;99.90;;;;;;5015561;28;20298;-64
2023/10/16 11:17:34;;;;;;;4.53;1.20;;;10.80;99.90;;;;;;5011051;28;20934;-55
2023/10/16 11:20:27;;;;;;;5.70;1.20;;;11.00;99.90;;;;;;4993935;28;20237;-55
2023/10/16 11:22:45;;;;;;;1.53;0.83;;;11.00;99.90;;;;;;5014525;28;20688;-56
2023/10/16 11:25:13;;;;;;;1.53;1.10;;;11.10;99.90;;;;;;5017479;28;20223;-55
2023/10/16 11:27:43;;;;;;;4.23;1.20;;;11.20;99.90;;;;;;5018263;28;20500;-55
2023/10/16 11:30:18;;;;;;;1.10;1.00;;;11.10;99.90;;;;;;5011966;28;20229;-55
2023/10/16 11:32:46;;;;;;;4.97;1.33;;;11.30;99.90;;;;;;5013244;28;20255;-55
2023/10/16 11:35:15;;;;;;;4.10;1.07;;;11.50;99.90;;;;;;5009208;28;20232;-56
2023/10/16 11:37:49;;;;;;;2.10;0.93;;;11.90;99.90;;;;;;5017887;28;20300;-55
2023/10/16 11:40:18;;;;;;;4.57;1.73;;;11.90;99.90;;;;;;5006222;28;20218;-55
2023/10/16 11:42:48;;;;;;;8.00;1.83;;;11.70;99.90;;;;;;5020007;28;20278;-57
2023/10/16 11:45:23;;;;;;;3.40;0.73;;;11.80;99.90;;;;;;5011696;28;20227;-57
2023/10/16 11:48:18;;;;;;;1.63;1.03;;;12.00;99.90;;;;;;5022649;28;20199;-56
2023/10/16 11:50:41;;;;;;;2.53;1.43;;;11.70;99.90;;;;;;5018528;28;20211;-57
2023/10/16 11:53:07;;;;;;;5.17;1.13;;;11.50;99.90;;;;;;5021441;28;20699;-57
2023/10/16 11:55:37;;;;;;;5.00;1.03;;;11.40;99.90;;;;;;5022246;28;20628;-57
2023/10/16 11:58:11;;;;;;;2.63;0.80;;;11.90;99.90;;;;;;5021238;28;20740;-55
2023/10/16 12:00:42;;;;;;;1.40;0.93;;;11.90;99.90;;;;;;5023839;28;20678;-56
2023/10/16 12:03:14;;;;;;;4.17;1.30;;;11.40;99.90;;;;;;5025974;28;20212;-57
2023/10/16 12:05:42;;;;;;;2.80;0.80;;;11.60;99.90;;;;;;4996909;28;20981;-54
2023/10/16 12:08:08;;;;;;;2.50;1.20;;;11.30;99.90;;;;;;5007303;28;20198;-54
2023/10/16 12:10:35;;;;;;;3.17;1.20;;;11.40;99.90;;;;;;5014593;28;20206;-54
2023/10/16 12:13:02;;;;;;;2.57;1.07;;;11.50;99.90;;;;;;5012322;28;20268;-60
2023/10/16 12:15:28;;;;;;;2.33;1.33;;;11.50;99.90;;;;;;5019751;28;20209;-56
2023/10/16 12:17:55;;;;;;;2.60;1.07;;;11.40;99.90;;;;;;5019166;28;20252;-55
2023/10/16 12:20:26;;;;;;;4.13;1.37;;;11.10;99.90;;;;;;5037858;23;20634;-54
2023/10/16 12:22:52;;;;;;;3.97;0.80;;;11.00;99.90;;;;;;5008319;28;20196;-55
2023/10/16 12:25:18;;;;;;;1.30;1.03;;;11.00;99.90;;;;;;5008141;28;20199;-54
2023/10/16 12:27:44;;;;;;;3.07;1.40;;;11.20;99.90;;;;;;5004747;28;20205;-55
2023/10/16 12:30:13;;;;;;;4.50;0.90;;;11.10;99.90;;;;;;4989288;28;20237;-54
2023/10/16 12:32:39;;;;;;;2.07;1.30;;;11.00;99.90;;;;;;5063130;23;20582;-55
2023/10/16 12:35:08;;;;;;;3.23;1.37;;;11.10;99.90;;;;;;5026472;28;20212;-55
2023/10/16 12:37:34;;;;;;;1.57;1.03;;;11.10;99.90;;;;;;5026099;28;20213;-55
2023/10/16 12:40:24;;;;;;;2.57;1.27;;;11.40;99.90;;;;;;5028883;28;20220;-55
2023/10/16 12:42:46;;;;;;;2.93;1.27;;;11.40;99.90;;;;;;5035709;28;20258;-55
2023/10/16 12:45:11;;;;;;;5.67;0.90;;;11.40;99.90;;;;;;5025721;28;20466;-55
2023/10/16 12:47:37;;;;;;;4.53;1.23;;;11.20;99.90;;;;;;5029081;28;20210;-55
2023/10/16 12:50:04;;;;;;;1.73;1.10;;;11.30;99.90;;;;;;5032104;28;20703;-55
2023/10/16 12:52:30;;;;;;;3.13;0.90;;;11.30;99.90;;;;;;5046249;28;20341;-55
2023/10/16 12:54:56;;;;;;;2.87;1.23;;;11.10;99.90;;;;;;5051361;28;20267;-55
2023/10/16 12:57:23;;;;;;;3.20;1.60;;;11.00;99.90;;;;;;5048930;28;20211;-56
2023/10/16 12:59:49;;;;;;;1.70;0.80;;;11.00;99.90;;;;;;5056222;28;20196;-56
2023/10/16 13:02:24;;;;;;;3.30;1.00;;;11.00;99.90;;;;;;5055996;28;20229;-56
2023/10/16 13:04:51;;;;;;;2.30;0.80;;;10.90;99.90;;;;;;5056205;28;20206;-55
2023/10/16 13:07:17;;;;;;;3.17;1.50;;;11.00;99.90;;;;;;5060429;28;20308;-55
2023/10/16 13:09:43;;;;;;;2.43;0.97;;;11.00;99.90;;;;;;5053190;28;20504;-57
2023/10/16 13:12:10;;;;;;;3.90;1.30;;;11.00;99.90;;;;;;5047512;28;20201;-55
2023/10/16 13:14:35;;;;;;;2.40;1.17;;;11.00;99.90;;;;;;5051097;28;20295;-57
2023/10/16 13:17:01;;;;;;;6.30;1.87;;;11.00;99.90;;;;;;5051697;28;20513;-55
2023/10/16 13:19:27;;;;;;;2.63;1.23;;;11.10;99.90;;;;;;5037272;28;20186;-55
2023/10/16 13:21:53;;;;;;;2.13;0.77;;;11.40;99.90;;;;;;5054204;28;20198;-56
2023/10/16 13:24:23;;;;;;;2.30;1.30;;;11.90;99.90;;;;;;5032540;28;20220;-55
2023/10/16 13:26:52;;;;;;;3.70;1.00;;;11.90;99.90;;;;;;5047207;28;20316;-56
2023/10/16 13:29:18;;;;;;;1.10;0.80;;;11.70;99.90;;;;;;5049592;28;20301;-57
2023/10/16 13:31:47;;;;;;;4.23;0.83;;;11.40;99.90;;;;;;5051998;28;20255;-56
2023/10/16 13:34:15;;;;;;;2.07;0.83;;;11.10;99.90;;;;;;5051983;28;20326;-56
2023/10/16 13:36:43;;;;;;;2.67;1.03;;;11.00;99.90;;;;;;5051057;28;20198;-64
2023/10/16 13:39:09;;;;;;;4.43;1.03;;;11.00;99.90;;;;;;5045497;28;20203;-62
2023/10/16 13:41:50;;;;;;;3.30;1.13;;;11.10;99.90;;;;;;5050149;28;20677;-55
2023/10/16 13:44:19;;;;;;;1.43;0.90;;;11.20;99.90;;;;;;5047121;28;20565;-68
2023/10/16 13:46:48;;;;;;;3.23;0.90;;;11.40;99.90;;;;;;5032672;28;20216;-59
2023/10/16 13:49:16;;;;;;;2.77;1.50;;;11.30;99.90;;;;;;5048516;28;20203;-58
2023/10/16 13:51:42;;;;;;;4.13;1.43;;;11.40;99.90;;;;;;5049898;28;20208;-54
2023/10/16 13:54:14;;;;;;;6.73;1.30;;;11.50;99.90;;;;;;5031235;28;20286;-54
2023/10/16 13:56:46;;;;;;;3.33;1.23;;;11.40;99.90;;;;;;5050553;28;20568;-55
2023/10/16 13:59:12;;;;;;;2.40;1.20;;;11.20;99.90;;;;;;5050586;28;20321;-55
2023/10/16 14:01:45;;;;;;;1.77;0.93;;;11.20;99.90;;;;;;5051843;28;20203;-53
2023/10/16 14:04:16;;;;;;;3.70;1.20;;;11.10;99.90;;;;;;5058588;28;20277;-53
2023/10/16 14:06:43;;;;;;;1.77;1.67;;;11.20;99.90;;;;;;5056107;28;20197;-53
2023/10/16 14:09:19;;;;;;;3.23;1.17;;;11.20;99.90;;;;;;5060398;28;20195;-55
2023/10/16 14:11:48;;;;;;;6.60;1.90;;;11.30;99.90;;;;;;5039044;28;20737;-56
2023/10/16 14:14:19;;;;;;;2.30;1.00;;;11.50;99.90;;;;;;5045178;28;20336;-54
2023/10/16 14:16:51;;;;;;;3.73;1.17;;;11.30;99.90;;;;;;5057956;28;20235;-54
2023/10/16 14:19:22;;;;;;;1.40;1.20;;;11.30;99.90;;;;;;5039754;28;20702;-56
2023/10/16 14:21:52;;;;;;;2.33;0.97;;;11.40;99.90;;;;;;5049969;28;20230;-56
2023/10/16 14:24:24;;;;;;;4.70;1.13;;;11.20;99.90;;;;;;5050985;28;20226;-55
2023/10/16 14:26:56;;;;;;;1.67;0.70;;;11.20;99.90;;;;;;5047638;28;20198;-56
2023/10/16 14:29:23;;;;;;;2.33;1.13;;;11.10;99.90;;;;;;5027680;28;20206;-56
2023/10/16 14:31:51;;;;;;;1.07;0.97;;;11.10;99.90;;;;;;5036505;28;20229;-55
2023/10/16 14:34:23;;;;;;;1.47;0.80;;;11.10;99.90;;;;;;5024413;28;20310;-53
2023/10/16 14:36:51;;;;;;;1.67;1.23;;;11.20;99.90;;;;;;5019127;28;20205;-57
2023/10/16 14:39:17;;;;;;;1.53;1.07;;;11.20;99.90;;;;;;5039808;28;20250;-54
2023/10/16 14:41:44;;;;;;;5.27;1.10;;;11.20;99.90;;;;;;5036378;28;20233;-55
2023/10/16 14:44:10;;;;;;;3.60;0.97;;;11.30;99.90;;;;;;5034066;28;20273;-57
2023/10/16 14:46:36;;;;;;;1.97;1.00;;;11.20;99.90;;;;;;5042507;28;20192;-56
2023/10/16 14:49:08;;;;;;;3.23;1.03;;;11.10;99.90;;;;;;5032056;28;20517;-54
2023/10/16 14:51:37;;;;;;;2.17;0.97;;;11.20;99.90;;;;;;5033089;28;20283;-54
2023/10/16 14:54:04;;;;;;;2.30;0.80;;;11.10;99.90;;;;;;5038391;28;20870;-54
2023/10/16 14:56:29;;;;;;;1.63;1.03;;;11.10;99.90;;;;;;5042306;28;20595;-55
2023/10/16 14:58:55;;;;;;;1.60;1.10;;;11.00;99.90;;;;;;5013672;28;20198;-55
2023/10/16 15:01:21;;;;;;;4.23;1.40;;;10.80;99.90;;;;;;5031957;28;20220;-55
2023/10/16 15:03:48;;;;;;;2.43;1.10;;;10.80;99.90;;;;;;5031894;28;20230;-55
2023/10/16 15:06:15;;;;;;;1.53;0.97;;;10.80;99.90;;;;;;5031673;28;20275;-66
2023/10/16 15:08:45;;;;;;;1.33;1.03;;;10.80;99.90;;;;;;5043475;28;20539;-57
2023/10/16 15:11:11;;;;;;;1.60;0.67;;;10.90;99.90;;;;;;5020030;28;20975;-56